createdAt,value
2023-05-09T00:02:08.207Z,1.80
2023-05-09T00:04:35.558Z,1.90
2023-05-09T00:07:02.254Z,1.97
2023-05-09T00:09:28.839Z,2.00
2023-05-09T00:11:55.410Z,2.27
2023-05-09T00:14:22.016Z,1.73
2023-05-09T00:16:49.519Z,1.70
2023-05-09T00:19:16.209Z,2.20
2023-05-09T00:21:43.087Z,1.73
2023-05-09T00:24:09.645Z,1.73
2023-05-09T00:26:36.161Z,1.73
2023-05-09T00:29:02.748Z,1.70
2023-05-09T00:31:29.357Z,2.13
2023-05-09T00:33:55.963Z,1.80
2023-05-09T00:36:22.501Z,1.70
2023-05-09T00:38:49.195Z,1.70
2023-05-09T00:41:15.778Z,1.67
2023-05-09T00:43:42.316Z,1.50
2023-05-09T00:46:08.996Z,2.13
2023-05-09T00:48:36.011Z,1.67
2023-05-09T00:51:03.360Z,2.13
2023-05-09T00:53:30.021Z,1.70
2023-05-09T00:55:57.899Z,2.13
2023-05-09T00:58:24.535Z,2.00
2023-05-09T01:00:51.525Z,2.20
2023-05-09T01:03:18.508Z,2.03
2023-05-09T01:05:48.219Z,1.97
2023-05-09T01:08:31.504Z,2.03
2023-05-09T01:11:13.363Z,2.57
2023-05-09T01:13:58.663Z,2.00
2023-05-09T01:16:38.637Z,2.37
2023-05-09T01:19:37.762Z,2.30
2023-05-09T01:22:09.040Z,2.43
2023-05-09T01:25:01.799Z,2.40
2023-05-09T01:28:06.124Z,2.00
2023-05-09T01:30:36.020Z,2.30
2023-05-09T01:33:07.381Z,2.13
2023-05-09T01:35:37.640Z,2.17
2023-05-09T01:38:12.940Z,2.37
2023-05-09T01:40:42.268Z,2.63
2023-05-09T01:43:11.607Z,2.10
2023-05-09T01:45:39.588Z,2.20
2023-05-09T01:48:08.959Z,2.40
2023-05-09T01:50:36.255Z,2.40
2023-05-09T01:53:05.328Z,2.50
2023-05-09T01:55:34.386Z,2.67
2023-05-09T01:58:03.143Z,2.47
2023-05-09T02:00:32.190Z,2.90
2023-05-09T02:02:59.079Z,2.67
2023-05-09T02:05:28.375Z,2.60
2023-05-09T02:08:01.212Z,2.43
2023-05-09T02:10:28.890Z,2.33
2023-05-09T02:12:56.927Z,2.60
2023-05-09T02:15:23.862Z,2.50
2023-05-09T02:17:50.519Z,2.70
2023-05-09T02:20:17.423Z,2.60
2023-05-09T02:22:44.649Z,2.87
2023-05-09T02:25:15.494Z,2.53
2023-05-09T02:27:45.462Z,2.50
2023-05-09T02:30:23.449Z,3.23
2023-05-09T02:32:53.794Z,3.03
2023-05-09T02:35:22.194Z,2.53
2023-05-09T02:37:49.076Z,2.37
2023-05-09T02:40:15.721Z,2.60
2023-05-09T02:42:42.276Z,3.07
2023-05-09T02:45:10.695Z,2.20
2023-05-09T02:47:38.156Z,2.50
2023-05-09T02:50:06.061Z,4.40
2023-05-09T02:52:32.668Z,2.97
2023-05-09T02:54:59.252Z,2.77
2023-05-09T02:57:26.052Z,3.20
2023-05-09T02:59:52.620Z,2.63
2023-05-09T03:02:19.311Z,2.90
2023-05-09T03:04:46.184Z,2.70
2023-05-09T03:07:12.753Z,2.40
2023-05-09T03:09:41.084Z,2.60
2023-05-09T03:12:08.181Z,3.20
2023-05-09T03:14:34.737Z,2.70
2023-05-09T03:17:01.286Z,2.90
2023-05-09T03:19:27.845Z,2.77
2023-05-09T03:21:54.563Z,2.97
2023-05-09T03:24:21.776Z,3.17
2023-05-09T03:26:48.326Z,3.30
2023-05-09T03:29:14.860Z,2.73
2023-05-09T03:31:41.505Z,2.60
2023-05-09T03:34:13.201Z,3.27
2023-05-09T03:36:39.787Z,2.90
2023-05-09T03:39:06.402Z,2.73
2023-05-09T03:41:32.988Z,3.33
2023-05-09T03:43:59.548Z,3.30
2023-05-09T03:46:26.131Z,3.13
2023-05-09T03:48:52.717Z,3.00
2023-05-09T03:51:21.462Z,3.17
2023-05-09T03:53:48.115Z,3.23
2023-05-09T03:56:14.786Z,3.13
2023-05-09T03:58:41.377Z,2.93
2023-05-09T04:01:08.038Z,3.00
2023-05-09T04:03:34.697Z,3.17
2023-05-09T04:06:01.541Z,3.17
2023-05-09T04:08:28.391Z,3.20
2023-05-09T04:10:54.985Z,3.70
2023-05-09T04:13:21.624Z,3.23
2023-05-09T04:15:48.214Z,3.33
2023-05-09T04:18:15.060Z,3.13
2023-05-09T04:20:41.609Z,3.47
2023-05-09T04:23:08.469Z,3.33
2023-05-09T04:25:35.638Z,3.10
2023-05-09T04:28:02.536Z,3.63
2023-05-09T04:30:29.348Z,3.23
2023-05-09T04:32:56.237Z,3.70
2023-05-09T04:35:23.100Z,3.90
2023-05-09T04:37:50.086Z,3.93
2023-05-09T04:40:17.053Z,3.70
2023-05-09T04:42:43.693Z,3.67
2023-05-09T04:45:11.942Z,3.80
2023-05-09T04:47:38.854Z,3.70
2023-05-09T04:50:06.060Z,3.60
2023-05-09T04:52:32.623Z,3.03
2023-05-09T04:54:59.258Z,3.77
2023-05-09T04:57:26.002Z,3.97
2023-05-09T04:59:53.150Z,3.83
2023-05-09T05:02:21.376Z,3.07
2023-05-09T05:04:48.268Z,3.83
2023-05-09T05:07:14.898Z,3.97
2023-05-09T05:09:41.492Z,3.40
2023-05-09T05:12:09.741Z,3.07
2023-05-09T05:14:36.652Z,3.40
2023-05-09T05:17:03.537Z,3.23
2023-05-09T05:19:30.223Z,4.00
2023-05-09T05:21:56.801Z,3.83
2023-05-09T05:24:23.368Z,3.67
2023-05-09T05:26:49.947Z,3.60
2023-05-09T05:29:17.768Z,3.90
2023-05-09T05:31:44.341Z,4.20
2023-05-09T05:34:11.020Z,4.03
2023-05-09T05:36:37.625Z,4.00
2023-05-09T05:39:04.613Z,3.73
2023-05-09T05:41:31.820Z,2.80
2023-05-09T05:43:58.448Z,3.67
2023-05-09T05:46:25.139Z,3.67
2023-05-09T05:48:51.776Z,3.20
2023-05-09T05:51:18.408Z,3.70
2023-05-09T05:53:45.000Z,3.57
2023-05-09T05:56:11.533Z,3.57
2023-05-09T05:58:38.485Z,3.80
2023-05-09T06:01:05.245Z,3.90
2023-05-09T06:03:32.357Z,3.33
2023-05-09T06:05:59.653Z,3.20
2023-05-09T06:08:26.359Z,3.87
2023-05-09T06:10:53.072Z,4.00
2023-05-09T06:13:19.710Z,3.77
2023-05-09T06:15:46.455Z,4.50
2023-05-09T06:18:13.406Z,3.77
2023-05-09T06:20:40.090Z,3.40
2023-05-09T06:23:07.159Z,3.60
2023-05-09T06:25:33.874Z,3.57
2023-05-09T06:28:00.727Z,3.10
2023-05-09T06:30:27.407Z,3.30
2023-05-09T06:32:55.143Z,3.70
2023-05-09T06:35:22.153Z,3.63
2023-05-09T06:37:49.276Z,3.83
2023-05-09T06:40:16.522Z,3.90
2023-05-09T06:42:43.131Z,3.80
2023-05-09T06:45:10.184Z,3.87
2023-05-09T06:47:36.794Z,3.20
2023-05-09T06:50:03.567Z,3.53
2023-05-09T06:52:30.440Z,3.40
2023-05-09T06:54:56.992Z,3.70
2023-05-09T06:57:23.853Z,3.47
2023-05-09T06:59:50.853Z,2.87
2023-05-09T07:02:17.431Z,3.60
2023-05-09T07:04:44.118Z,3.40
2023-05-09T07:07:10.671Z,3.37
2023-05-09T07:09:37.295Z,3.40
2023-05-09T07:12:04.244Z,4.67
2023-05-09T07:14:30.890Z,3.67
2023-05-09T07:17:09.883Z,3.17
2023-05-09T07:19:41.425Z,3.00
2023-05-09T07:22:08.153Z,4.23
2023-05-09T07:24:34.759Z,3.53
2023-05-09T07:27:04.238Z,3.50
2023-05-09T07:29:30.853Z,3.80
2023-05-09T07:31:57.599Z,3.37
2023-05-09T07:34:25.625Z,3.90
2023-05-09T07:36:52.320Z,3.40
2023-05-09T07:39:18.975Z,3.50
2023-05-09T07:41:46.437Z,3.33
2023-05-09T07:44:15.282Z,3.40
2023-05-09T07:46:42.265Z,3.43
2023-05-09T07:49:09.277Z,3.03
2023-05-09T07:51:36.083Z,3.37
2023-05-09T07:54:02.756Z,3.07
2023-05-09T07:56:29.557Z,3.53
2023-05-09T07:58:56.129Z,2.83
2023-05-09T08:01:22.691Z,3.07
2023-05-09T08:03:49.413Z,3.30
2023-05-09T08:06:16.156Z,3.00
2023-05-09T08:08:42.766Z,2.83
2023-05-09T08:11:09.530Z,3.07
2023-05-09T08:13:36.515Z,3.00
2023-05-09T08:16:03.170Z,2.70
2023-05-09T08:18:29.978Z,2.57
2023-05-09T08:20:56.872Z,3.97
2023-05-09T08:23:23.651Z,3.00
2023-05-09T08:25:54.345Z,2.87
2023-05-09T08:28:24.487Z,2.83
2023-05-09T08:30:52.182Z,2.70
2023-05-09T08:33:19.149Z,2.63
2023-05-09T08:35:50.251Z,2.60
2023-05-09T08:38:16.887Z,2.13
2023-05-09T08:40:43.522Z,3.43
2023-05-09T08:43:11.894Z,2.30
2023-05-09T08:45:52.050Z,2.73
2023-05-09T08:48:18.967Z,2.47
2023-05-09T08:50:45.855Z,2.40
2023-05-09T08:53:12.802Z,2.50
2023-05-09T08:55:39.755Z,2.73
2023-05-09T08:58:06.847Z,2.30
2023-05-09T09:00:34.019Z,2.60
2023-05-09T09:03:04.308Z,2.77
2023-05-09T09:05:41.301Z,2.33
2023-05-09T09:08:09.958Z,2.30
2023-05-09T09:10:42.208Z,2.53
2023-05-09T09:13:12.672Z,2.43
2023-05-09T09:15:41.618Z,2.20
2023-05-09T09:18:12.479Z,2.50
2023-05-09T09:20:48.408Z,2.20
2023-05-09T09:23:19.144Z,2.50
2023-05-09T09:25:49.333Z,2.30
2023-05-09T09:28:15.893Z,2.00
2023-05-09T09:30:48.033Z,2.13
2023-05-09T09:33:26.044Z,2.40
2023-05-09T09:35:54.610Z,2.23
2023-05-09T09:38:22.259Z,2.40
2023-05-09T09:40:51.651Z,1.77
2023-05-09T09:43:18.822Z,2.10
2023-05-09T09:45:49.530Z,1.90
2023-05-09T09:48:16.351Z,2.00
2023-05-09T09:50:43.344Z,1.80
2023-05-09T09:53:10.019Z,2.60
2023-05-09T09:55:36.646Z,1.80
2023-05-09T09:58:03.358Z,2.20
2023-05-09T10:00:30.417Z,2.37
2023-05-09T10:02:59.223Z,1.87
2023-05-09T10:05:28.752Z,2.43
2023-05-09T10:07:57.380Z,1.87
2023-05-09T10:10:26.941Z,1.90
2023-05-09T10:12:57.456Z,1.90
2023-05-09T10:15:24.719Z,2.20
2023-05-09T10:17:56.174Z,1.77
2023-05-09T10:20:24.088Z,2.17
2023-05-09T10:22:58.060Z,2.00
2023-05-09T10:25:45.036Z,2.33
2023-05-09T10:28:13.725Z,1.90
2023-05-09T10:30:50.589Z,1.80
2023-05-09T10:33:24.344Z,2.00
2023-05-09T10:35:52.308Z,2.70
2023-05-09T10:38:19.202Z,1.50
2023-05-09T10:40:48.179Z,1.70
2023-05-09T10:43:14.883Z,1.92
2023-05-09T10:45:42.823Z,1.90
2023-05-09T10:48:10.003Z,1.73
2023-05-09T10:50:38.189Z,1.90
2023-05-09T10:53:04.957Z,1.70
2023-05-09T10:55:48.104Z,2.10
2023-05-09T10:58:28.040Z,1.73
2023-05-09T11:00:57.271Z,1.42
2023-05-09T11:03:26.093Z,1.63
2023-05-09T11:05:54.886Z,1.67
2023-05-09T11:08:26.875Z,1.85
2023-05-09T11:10:55.199Z,1.70
2023-05-09T11:13:25.205Z,1.35
2023-05-09T11:16:00.887Z,1.55
2023-05-09T11:18:29.161Z,1.75
2023-05-09T11:20:56.457Z,1.42
2023-05-09T11:23:28.127Z,1.45
2023-05-09T11:26:05.284Z,1.50
2023-05-09T11:28:34.996Z,1.80
2023-05-09T11:31:22.021Z,1.40
2023-05-09T11:33:55.216Z,1.88
2023-05-09T11:36:30.217Z,1.38
2023-05-09T11:39:02.761Z,1.50
2023-05-09T11:41:30.150Z,1.75
2023-05-09T11:43:59.549Z,2.35
2023-05-09T11:46:27.396Z,1.63
2023-05-09T11:48:54.519Z,1.70
2023-05-09T11:51:21.204Z,1.77
2023-05-09T11:53:51.582Z,3.28
2023-05-09T11:56:18.319Z,1.80
2023-05-09T11:58:46.863Z,1.98
2023-05-09T12:01:13.714Z,1.85
2023-05-09T12:03:46.543Z,1.67
2023-05-09T12:06:18.392Z,1.80
2023-05-09T12:08:45.845Z,1.90
2023-05-09T12:11:12.899Z,1.50
2023-05-09T12:13:50.346Z,1.55
2023-05-09T12:16:18.278Z,1.60
2023-05-09T12:18:50.459Z,1.67
2023-05-09T12:21:21.910Z,4.07
2023-05-09T12:23:51.262Z,5.57
2023-05-09T12:26:19.885Z,4.78
2023-05-09T12:28:48.882Z,4.30
2023-05-09T12:31:17.128Z,4.72
2023-05-09T12:33:43.957Z,3.78
2023-05-09T12:36:12.611Z,2.78
2023-05-09T12:38:40.090Z,3.08
2023-05-09T12:41:29.571Z,1.83
2023-05-09T12:43:58.483Z,1.80
2023-05-09T12:46:25.830Z,2.08
2023-05-09T12:48:52.656Z,2.00
2023-05-09T12:51:21.078Z,1.90
2023-05-09T12:53:48.141Z,1.60
2023-05-09T12:56:17.259Z,1.60
2023-05-09T12:58:52.421Z,1.58
2023-05-09T13:01:29.148Z,1.55
2023-05-09T13:04:04.252Z,2.03
2023-05-09T13:06:31.357Z,1.33
2023-05-09T13:09:00.399Z,1.45
2023-05-09T13:11:27.260Z,1.65
2023-05-09T13:13:57.212Z,1.65
2023-05-09T13:16:24.410Z,2.80
2023-05-09T13:18:51.027Z,1.80
2023-05-09T13:21:17.775Z,1.80
2023-05-09T13:23:45.644Z,1.50
2023-05-09T13:26:12.512Z,1.52
2023-05-09T13:28:39.093Z,1.75
2023-05-09T13:31:05.750Z,1.40
2023-05-09T13:33:32.496Z,1.50
2023-05-09T13:35:59.112Z,1.60
2023-05-09T13:38:25.930Z,1.48
2023-05-09T13:40:52.538Z,1.50
2023-05-09T13:43:19.133Z,1.50
2023-05-09T13:45:45.929Z,1.48
2023-05-09T13:48:12.649Z,1.40
2023-05-09T13:50:39.357Z,1.38
2023-05-09T13:53:05.974Z,2.85
2023-05-09T13:55:32.618Z,1.73
2023-05-09T13:57:59.216Z,1.73
2023-05-09T14:00:26.841Z,1.70
2023-05-09T14:02:53.573Z,1.52
2023-05-09T14:05:20.197Z,1.90
2023-05-09T14:07:46.874Z,1.50
2023-05-09T14:10:13.470Z,1.80
2023-05-09T14:12:40.777Z,1.60
2023-05-09T14:15:08.693Z,1.80
2023-05-09T14:17:35.465Z,1.77
2023-05-09T14:20:02.333Z,1.83
2023-05-09T14:22:29.139Z,1.65
2023-05-09T14:24:57.586Z,1.65
2023-05-09T14:27:25.266Z,1.60
2023-05-09T14:29:52.111Z,5.00
2023-05-09T14:32:18.827Z,2.00
2023-05-09T14:34:46.087Z,2.00
2023-05-09T14:37:15.642Z,1.50
2023-05-09T14:39:43.944Z,1.52
2023-05-09T14:42:11.727Z,1.55
2023-05-09T14:44:38.839Z,1.60
2023-05-09T14:47:06.110Z,1.27
2023-05-09T14:49:33.340Z,1.50
2023-05-09T14:52:00.344Z,1.40
2023-05-09T14:54:27.251Z,1.30
2023-05-09T14:56:53.874Z,1.40
2023-05-09T14:59:20.562Z,2.15
2023-05-09T15:01:47.171Z,1.30
2023-05-09T15:04:13.775Z,1.08
2023-05-09T15:06:41.151Z,1.38
2023-05-09T15:09:08.090Z,1.35
2023-05-09T15:11:46.948Z,1.30
2023-05-09T15:14:15.033Z,1.60
2023-05-09T15:16:42.017Z,1.30
2023-05-09T15:19:08.889Z,1.63
2023-05-09T15:21:35.503Z,1.52
2023-05-09T15:24:02.595Z,1.27
2023-05-09T15:26:29.420Z,1.15
2023-05-09T15:28:56.105Z,1.60
2023-05-09T15:31:24.176Z,1.40
2023-05-09T15:33:51.108Z,1.10
2023-05-09T15:36:17.798Z,1.30
2023-05-09T15:38:48.388Z,1.30
2023-05-09T15:41:15.565Z,1.67
2023-05-09T15:43:42.236Z,1.50
2023-05-09T15:46:08.993Z,1.33
2023-05-09T15:48:35.777Z,1.60
2023-05-09T15:51:02.871Z,1.52
2023-05-09T15:53:30.181Z,1.60
2023-05-09T15:55:57.212Z,1.33
2023-05-09T15:58:23.757Z,1.40
2023-05-09T16:00:50.472Z,0.98
2023-05-09T16:03:17.583Z,1.33
2023-05-09T16:05:44.618Z,1.48
2023-05-09T16:08:11.415Z,8.32
2023-05-09T16:10:38.075Z,1.85
2023-05-09T16:13:05.943Z,1.10
2023-05-09T16:15:32.849Z,1.17
2023-05-09T16:17:59.504Z,1.48
2023-05-09T16:20:26.110Z,1.40
2023-05-09T16:22:52.854Z,1.20
2023-05-09T16:25:19.570Z,1.50
2023-05-09T16:27:46.267Z,1.40
2023-05-09T16:30:13.695Z,1.52
2023-05-09T16:32:40.455Z,1.33
2023-05-09T16:35:07.851Z,1.30
2023-05-09T16:37:35.680Z,1.55
2023-05-09T16:40:03.019Z,1.40
2023-05-09T16:42:29.804Z,2.13
2023-05-09T16:44:57.598Z,1.35
2023-05-09T16:47:24.338Z,1.10
2023-05-09T16:49:51.075Z,1.38
2023-05-09T16:52:18.579Z,1.85
2023-05-09T16:54:45.239Z,1.98
2023-05-09T16:57:12.018Z,3.63
2023-05-09T16:59:38.609Z,1.90
2023-05-09T17:02:05.391Z,1.50
2023-05-09T17:04:32.101Z,1.30
2023-05-09T17:06:58.762Z,1.48
2023-05-09T17:09:25.433Z,1.30
2023-05-09T17:11:52.093Z,1.40
2023-05-09T17:14:18.788Z,1.60
2023-05-09T17:16:45.461Z,1.83
2023-05-09T17:19:12.207Z,1.20
2023-05-09T17:21:41.751Z,1.30
2023-05-09T17:24:09.917Z,1.00
2023-05-09T17:26:36.481Z,1.73
2023-05-09T17:29:03.859Z,1.30
2023-05-09T17:31:31.559Z,1.10
2023-05-09T17:33:58.317Z,1.25
2023-05-09T17:36:25.858Z,1.10
2023-05-09T17:38:52.544Z,1.40
2023-05-09T17:41:19.177Z,1.23
2023-05-09T17:43:45.814Z,1.30
2023-05-09T17:46:14.898Z,1.30
2023-05-09T17:48:42.260Z,1.37
2023-05-09T17:51:09.285Z,1.27
2023-05-09T17:53:35.912Z,1.40
2023-05-09T17:56:02.683Z,1.47
2023-05-09T17:58:30.054Z,1.30
2023-05-09T18:00:58.707Z,1.00
2023-05-09T18:03:29.254Z,1.37
2023-05-09T18:05:56.122Z,1.10
2023-05-09T18:08:22.941Z,1.37
2023-05-09T18:10:49.998Z,1.10
2023-05-09T18:13:17.246Z,1.40
2023-05-09T18:15:44.060Z,1.13
2023-05-09T18:18:12.852Z,1.10
2023-05-09T18:20:41.554Z,1.40
2023-05-09T18:23:08.286Z,1.40
2023-05-09T18:25:35.065Z,1.10
2023-05-09T18:28:01.658Z,1.20
2023-05-09T18:30:28.186Z,1.20
2023-05-09T18:32:54.824Z,1.30
2023-05-09T18:35:21.586Z,1.20
2023-05-09T18:37:48.185Z,1.20
2023-05-09T18:40:16.229Z,1.40
2023-05-09T18:42:43.023Z,1.17
2023-05-09T18:45:10.598Z,1.20
2023-05-09T18:47:38.398Z,1.57
2023-05-09T18:50:07.211Z,1.93
2023-05-09T18:52:34.563Z,1.23
2023-05-09T18:55:01.222Z,1.60
2023-05-09T18:57:28.423Z,1.23
2023-05-09T18:59:56.186Z,1.50
2023-05-09T19:02:23.699Z,1.43
2023-05-09T19:04:51.596Z,1.27
2023-05-09T19:07:18.389Z,1.70
2023-05-09T19:09:45.053Z,1.37
2023-05-09T19:12:11.689Z,1.40
2023-05-09T19:14:38.443Z,1.77
2023-05-09T19:17:05.973Z,1.93
2023-05-09T19:19:32.786Z,1.70
2023-05-09T19:22:00.834Z,1.70
2023-05-09T19:24:27.800Z,1.97
2023-05-09T19:26:54.362Z,3.30
2023-05-09T19:29:20.912Z,2.70
2023-05-09T19:31:47.480Z,2.93
2023-05-09T19:34:14.180Z,1.60
2023-05-09T19:36:40.907Z,1.40
2023-05-09T19:39:09.094Z,1.30
2023-05-09T19:41:35.736Z,1.57
2023-05-09T19:44:02.432Z,1.40
2023-05-09T19:46:29.088Z,5.27
2023-05-09T19:48:55.680Z,1.73
2023-05-09T19:51:22.308Z,1.50
2023-05-09T19:53:48.969Z,1.57
2023-05-09T19:56:15.738Z,1.70
2023-05-09T19:58:42.503Z,1.70
2023-05-09T20:01:09.626Z,1.73
2023-05-09T20:03:37.219Z,1.57
2023-05-09T20:06:04.143Z,1.90
2023-05-09T20:08:31.321Z,1.80
2023-05-09T20:10:59.433Z,2.00
2023-05-09T20:13:27.147Z,2.07
2023-05-09T20:15:53.914Z,1.50
2023-05-09T20:18:20.641Z,1.30
2023-05-09T20:20:47.346Z,1.57
2023-05-09T20:23:14.929Z,1.23
2023-05-09T20:25:41.550Z,1.70
2023-05-09T20:28:08.093Z,1.40
2023-05-09T20:30:34.654Z,1.30
2023-05-09T20:33:01.647Z,1.53
2023-05-09T20:35:28.204Z,1.43
2023-05-09T20:37:54.832Z,2.43
2023-05-09T20:40:21.376Z,2.00
2023-05-09T20:42:47.964Z,1.63
2023-05-09T20:45:14.525Z,1.50
2023-05-09T20:47:41.192Z,1.57
2023-05-09T20:50:08.409Z,1.87
2023-05-09T20:52:35.063Z,1.63
2023-05-09T20:55:02.108Z,1.53
2023-05-09T20:57:29.015Z,1.90
2023-05-09T20:59:55.836Z,1.40
2023-05-09T21:02:22.564Z,1.87
2023-05-09T21:04:49.228Z,1.73
2023-05-09T21:07:19.259Z,1.47
2023-05-09T21:09:49.891Z,1.60
2023-05-09T21:12:16.975Z,1.70
2023-05-09T21:14:44.862Z,1.90
2023-05-09T21:17:12.036Z,1.80
2023-05-09T21:19:38.876Z,1.70
2023-05-09T21:22:05.654Z,1.83
2023-05-09T21:24:32.301Z,1.93
2023-05-09T21:26:59.028Z,1.70
2023-05-09T21:29:25.599Z,1.83
2023-05-09T21:31:52.223Z,1.67
2023-05-09T21:34:18.916Z,1.87
2023-05-09T21:36:45.516Z,2.07
2023-05-09T21:39:12.210Z,1.57
2023-05-09T21:41:40.475Z,2.03
2023-05-09T21:44:07.942Z,1.70
2023-05-09T21:46:35.567Z,1.80
2023-05-09T21:49:02.330Z,1.87
2023-05-09T21:51:29.513Z,1.63
2023-05-09T21:53:56.071Z,1.80
2023-05-09T21:56:23.288Z,1.90
2023-05-09T21:58:50.255Z,1.77
2023-05-09T22:01:19.269Z,1.80
2023-05-09T22:03:46.272Z,1.70
2023-05-09T22:06:13.751Z,1.83
2023-05-09T22:08:40.681Z,2.30
2023-05-09T22:11:07.852Z,1.90
2023-05-09T22:13:36.025Z,1.80
2023-05-09T22:16:04.114Z,2.00
2023-05-09T22:18:31.503Z,1.80
2023-05-09T22:20:59.214Z,2.30
2023-05-09T22:23:25.961Z,2.13
2023-05-09T22:25:52.962Z,1.90
2023-05-09T22:28:19.665Z,2.20
2023-05-09T22:30:46.311Z,1.97
2023-05-09T22:33:13.046Z,2.20
2023-05-09T22:35:39.746Z,1.97
2023-05-09T22:38:06.668Z,2.00
2023-05-09T22:40:34.091Z,1.83
2023-05-09T22:43:00.704Z,2.43
2023-05-09T22:45:27.513Z,2.70
2023-05-09T22:47:54.069Z,2.37
2023-05-09T22:50:20.879Z,2.60
2023-05-09T22:52:47.570Z,2.33
2023-05-09T22:55:14.261Z,2.07
2023-05-09T22:57:41.620Z,2.37
2023-05-09T23:00:08.778Z,2.10
2023-05-09T23:02:35.539Z,2.00
2023-05-09T23:05:02.244Z,2.37
2023-05-09T23:07:28.815Z,1.93
2023-05-09T23:09:55.587Z,2.20
2023-05-09T23:12:22.276Z,2.20
2023-05-09T23:14:48.842Z,2.30
2023-05-09T23:17:15.503Z,2.80
2023-05-09T23:19:42.146Z,2.50
2023-05-09T23:22:08.852Z,2.50
2023-05-09T23:24:35.544Z,2.40
2023-05-09T23:27:02.911Z,2.30
2023-05-09T23:29:29.579Z,2.20
2023-05-09T23:31:56.618Z,2.43
2023-05-09T23:34:23.250Z,2.53
2023-05-09T23:36:49.775Z,2.27
2023-05-09T23:39:16.361Z,2.30
2023-05-09T23:41:43.290Z,2.43
2023-05-09T23:44:09.901Z,2.33
2023-05-09T23:46:36.604Z,2.67
2023-05-09T23:49:04.554Z,2.67
2023-05-09T23:51:31.133Z,2.40
2023-05-09T23:53:58.171Z,2.60
2023-05-09T23:56:25.504Z,2.50
2023-05-09T23:58:55.041Z,2.40
